Time;durP1;ratioP1;P1;durP2;ratioP2;P2;SDS_P1;SDS_P2;PMS_P1;PMS_P2;Temp;Humidity;BMP_temperature;BMP_pressure;BME280_temperature;BME280_humidity;BME280_pressure;Samples;Min_cycle;Max_cycle;Signal;HPM_P1;HPM_P2
2022/08/28 00:00:28;;;;;;;28.02;7.25;;;18.60;99.90;;;;;;5187057;28;20500;-75
2022/08/28 00:02:59;;;;;;;29.35;7.65;;;18.70;99.90;;;;;;5187198;28;20084;-77
2022/08/28 00:05:31;;;;;;;35.13;8.18;;;18.70;99.90;;;;;;5187279;28;20445;-74
2022/08/28 00:08:02;;;;;;;26.63;7.07;;;18.80;99.90;;;;;;5187322;28;20042;-76
2022/08/28 00:10:34;;;;;;;28.05;7.78;;;18.80;99.90;;;;;;5663720;23;20379;-75
2022/08/28 00:13:06;;;;;;;35.13;7.20;;;18.70;99.90;;;;;;5169159;28;20512;-75
2022/08/28 00:15:37;;;;;;;33.38;7.63;;;18.50;99.90;;;;;;5176137;28;20061;-77
2022/08/28 00:18:08;;;;;;;31.45;8.00;;;18.70;99.90;;;;;;5175858;28;20057;-73
2022/08/28 00:20:39;;;;;;;30.73;7.63;;;18.70;99.90;;;;;;5164682;28;20034;-74
2022/08/28 00:23:11;;;;;;;24.42;6.53;;;18.70;99.90;;;;;;5161558;28;20378;-76
2022/08/28 00:25:42;;;;;;;34.13;7.55;;;18.40;99.90;;;;;;5174340;28;20453;-75
2022/08/28 00:28:14;;;;;;;34.30;7.68;;;18.40;99.90;;;;;;5166802;28;20034;-76
2022/08/28 00:30:50;;;;;;;28.98;7.95;;;18.50;99.90;;;;;;5166437;28;20378;-75
2022/08/28 00:33:34;;;;;;;28.92;7.13;;;18.70;99.90;;;;;;5175473;28;20033;-76
2022/08/28 00:36:05;;;;;;;29.58;7.10;;;18.60;99.90;;;;;;5168151;28;20049;-75
2022/08/28 00:38:35;;;;;;;24.55;6.95;;;18.60;99.90;;;;;;5176936;28;20438;-77
2022/08/28 00:41:13;;;;;;;27.13;6.45;;;18.50;99.90;;;;;;5170625;28;20146;-75
2022/08/28 00:43:50;;;;;;;26.40;7.28;;;18.50;99.90;;;;;;5178004;28;20033;-74
2022/08/28 00:46:25;;;;;;;21.00;6.47;;;18.50;99.90;;;;;;5171615;28;20030;-73
2022/08/28 00:49:00;;;;;;;25.52;7.38;;;18.50;99.90;;;;;;5163510;28;20065;-75
2022/08/28 00:54:21;;;;;;;24.92;7.43;;;18.40;99.90;;;;;;5179236;28;20057;-77
2022/08/28 00:56:54;;;;;;;33.33;7.82;;;18.40;99.90;;;;;;5177510;28;20479;-76
2022/08/28 00:59:25;;;;;;;28.17;7.72;;;18.20;99.90;;;;;;5173245;28;20011;-76
2022/08/28 01:01:57;;;;;;;32.47;7.63;;;18.30;99.90;;;;;;5174185;28;20034;-76
2022/08/28 01:04:31;;;;;;;26.33;6.35;;;18.40;99.90;;;;;;5153581;28;20030;-74
2022/08/28 01:07:06;;;;;;;21.75;6.93;;;18.30;99.90;;;;;;5155711;28;20367;-75
2022/08/28 01:09:43;;;;;;;24.30;7.35;;;18.20;99.90;;;;;;5175936;28;20416;-74
2022/08/28 01:12:28;;;;;;;28.75;6.85;;;18.20;99.90;;;;;;5163379;28;20038;-75
2022/08/28 01:15:03;;;;;;;29.15;6.60;;;18.20;99.90;;;;;;5163651;28;20033;-74
2022/08/28 01:17:34;;;;;;;32.80;6.80;;;18.40;99.90;;;;;;5183867;28;20367;-75
2022/08/28 01:20:12;;;;;;;24.27;7.10;;;18.30;99.90;;;;;;5180498;28;20099;-74
2022/08/28 01:23:17;;;;;;;23.85;6.45;;;18.30;99.90;;;;;;5178848;28;20026;-76
2022/08/28 01:25:47;;;;;;;22.10;6.53;;;18.40;99.90;;;;;;5177226;28;20026;-75
2022/08/28 01:28:19;;;;;;;23.98;6.35;;;18.30;99.90;;;;;;5176381;28;20032;-75
2022/08/28 01:30:49;;;;;;;25.35;7.25;;;18.10;99.90;;;;;;5173320;28;20058;-74
2022/08/28 01:33:20;;;;;;;28.00;6.82;;;18.10;99.90;;;;;;5176589;28;20601;-75
2022/08/28 01:35:51;;;;;;;24.85;7.43;;;18.20;99.90;;;;;;5169379;28;20037;-75
2022/08/28 01:38:22;;;;;;;29.05;6.95;;;18.10;99.90;;;;;;5152596;28;20057;-74
2022/08/28 01:40:56;;;;;;;25.83;7.15;;;18.10;99.90;;;;;;5154889;28;20054;-76
2022/08/28 01:43:27;;;;;;;37.28;8.25;;;18.10;99.90;;;;;;5169889;28;20019;-74
2022/08/28 01:46:00;;;;;;;27.13;7.88;;;18.10;99.90;;;;;;5177734;28;20025;-74
2022/08/28 01:48:35;;;;;;;24.45;7.63;;;18.20;99.90;;;;;;5178469;28;20064;-74
2022/08/28 01:51:06;;;;;;;27.67;7.57;;;18.20;99.90;;;;;;5167665;28;20034;-74
2022/08/28 01:53:37;;;;;;;24.23;7.97;;;18.30;99.90;;;;;;5168441;28;20026;-75
2022/08/28 01:56:12;;;;;;;27.27;7.90;;;18.10;99.90;;;;;;5147370;28;20030;-75
2022/08/28 01:58:44;;;;;;;25.45;7.35;;;18.10;99.90;;;;;;5151536;28;20097;-74
2022/08/28 02:01:18;;;;;;;27.73;7.50;;;18.10;99.90;;;;;;5151698;28;20038;-76
2022/08/28 02:03:51;;;;;;;17.27;6.63;;;17.90;99.90;;;;;;5171934;28;20021;-76
2022/08/28 02:06:22;;;;;;;27.00;7.40;;;18.00;99.90;;;;;;5164700;28;20141;-76
2022/08/28 02:08:54;;;;;;;29.02;7.13;;;18.00;99.90;;;;;;5168181;28;20125;-76
2022/08/28 02:11:28;;;;;;;24.92;7.50;;;18.10;99.90;;;;;;5175975;28;20054;-74
2022/08/28 02:14:00;;;;;;;25.90;7.70;;;17.90;99.90;;;;;;5178978;28;20018;-76
2022/08/28 02:16:31;;;;;;;30.98;8.05;;;17.90;99.90;;;;;;5177523;28;20052;-74
2022/08/28 02:19:02;;;;;;;26.15;8.65;;;17.80;99.90;;;;;;5157735;28;20023;-74
2022/08/28 02:21:34;;;;;;;30.05;7.70;;;17.90;99.90;;;;;;5165768;28;20181;-77
2022/08/28 02:24:05;;;;;;;27.83;7.75;;;18.00;99.90;;;;;;5155810;28;20030;-74
2022/08/28 02:26:36;;;;;;;30.48;8.07;;;17.90;99.90;;;;;;5175159;28;20030;-75
2022/08/28 02:29:07;;;;;;;23.30;7.07;;;17.90;99.90;;;;;;5151022;28;20022;-75
2022/08/28 02:31:37;;;;;;;20.10;7.22;;;17.90;99.90;;;;;;5179731;28;20036;-76
2022/08/28 02:34:10;;;;;;;27.27;7.32;;;18.00;99.90;;;;;;5177619;28;20026;-75
2022/08/28 02:36:41;;;;;;;22.83;7.72;;;17.90;99.90;;;;;;5174514;28;20037;-73
2022/08/28 02:39:12;;;;;;;24.75;7.28;;;17.90;99.90;;;;;;5173841;28;20040;-74
2022/08/28 02:41:43;;;;;;;25.90;7.32;;;18.00;99.90;;;;;;5158605;28;20045;-75
2022/08/28 02:44:14;;;;;;;20.58;6.95;;;17.90;99.90;;;;;;5172735;28;20449;-74
2022/08/28 02:46:45;;;;;;;29.15;7.53;;;17.80;99.90;;;;;;5175035;28;20116;-74
2022/08/28 02:49:15;;;;;;;30.75;8.18;;;17.70;99.90;;;;;;5173182;28;20049;-74
2022/08/28 02:51:46;;;;;;;22.33;7.15;;;17.80;99.90;;;;;;5171930;28;20022;-76
2022/08/28 02:54:17;;;;;;;23.50;7.05;;;17.80;99.90;;;;;;5171912;28;20677;-75
2022/08/28 02:56:48;;;;;;;20.63;6.55;;;17.80;99.90;;;;;;5175253;28;20430;-76
2022/08/28 02:59:19;;;;;;;21.67;7.38;;;17.80;99.90;;;;;;5176380;28;20053;-74
2022/08/28 03:01:50;;;;;;;22.17;7.70;;;17.80;99.90;;;;;;5169142;28;20026;-76
2022/08/28 03:04:21;;;;;;;22.15;6.75;;;17.80;99.90;;;;;;5178786;28;20029;-75
2022/08/28 03:06:52;;;;;;;24.52;7.50;;;17.70;99.90;;;;;;5173582;28;20029;-75
2022/08/28 03:09:23;;;;;;;24.45;7.00;;;17.60;99.90;;;;;;5153923;28;20041;-75
2022/08/28 03:11:53;;;;;;;27.38;8.25;;;17.70;99.90;;;;;;5181027;28;20053;-75
2022/08/28 03:14:25;;;;;;;22.17;7.07;;;17.40;99.90;;;;;;5153694;28;20034;-75
2022/08/28 03:16:56;;;;;;;29.25;8.43;;;17.30;99.90;;;;;;5154428;28;20029;-75
2022/08/28 03:19:27;;;;;;;27.70;7.50;;;17.40;99.90;;;;;;5169551;28;20018;-74
2022/08/28 03:21:58;;;;;;;20.63;7.90;;;17.60;99.90;;;;;;5171733;28;20041;-75
2022/08/28 03:24:28;;;;;;;20.25;7.72;;;17.50;99.90;;;;;;5158583;28;20117;-75
2022/08/28 03:27:00;;;;;;;25.27;8.43;;;17.70;99.90;;;;;;5171464;28;20010;-75
2022/08/28 03:29:31;;;;;;;18.67;7.22;;;17.60;99.90;;;;;;5175996;28;20064;-74
2022/08/28 03:32:02;;;;;;;28.25;8.32;;;17.60;99.90;;;;;;5169648;28;20030;-75
2022/08/28 03:34:33;;;;;;;27.58;8.27;;;17.30;99.90;;;;;;5169155;28;20034;-76
2022/08/28 03:37:04;;;;;;;27.08;7.47;;;17.40;99.90;;;;;;5171229;28;20089;-74
2022/08/28 03:39:35;;;;;;;23.10;7.95;;;17.40;99.90;;;;;;5169853;28;20041;-75
2022/08/28 03:42:06;;;;;;;27.08;7.80;;;17.50;99.90;;;;;;5146793;28;20050;-76
2022/08/28 03:44:37;;;;;;;22.60;7.63;;;17.60;99.90;;;;;;5157306;28;20030;-75
2022/08/28 03:47:08;;;;;;;28.13;8.07;;;17.60;99.90;;;;;;5153273;28;20509;-75
2022/08/28 03:49:39;;;;;;;24.10;7.53;;;17.50;99.90;;;;;;5156760;28;20022;-75
2022/08/28 03:52:12;;;;;;;27.52;6.80;;;17.60;99.90;;;;;;5174147;28;20112;-74
2022/08/28 03:54:42;;;;;;;26.00;7.55;;;17.70;99.90;;;;;;5174493;28;20034;-76
2022/08/28 03:57:22;;;;;;;33.47;8.20;;;17.70;99.90;;;;;;5171864;28;20030;-74
2022/08/28 03:59:53;;;;;;;;;;;17.80;99.90;;;;;;5153936;28;20065;-75
2022/08/28 04:02:24;;;;;;;33.80;7.50;;;17.70;99.90;;;;;;5172442;28;19909;-74
2022/08/28 04:04:55;;;;;;;26.55;7.80;;;17.60;99.90;;;;;;5174817;28;20025;-76
2022/08/28 04:07:26;;;;;;;29.70;8.15;;;17.70;99.90;;;;;;5156564;28;20113;-75
2022/08/28 04:09:57;;;;;;;29.08;7.15;;;17.80;99.90;;;;;;5151021;28;20112;-75
2022/08/28 04:12:28;;;;;;;26.50;6.82;;;18.10;99.90;;;;;;5170815;28;20030;-76
2022/08/28 04:14:59;;;;;;;22.02;7.35;;;18.10;99.90;;;;;;5171761;28;20069;-75
2022/08/28 04:17:29;;;;;;;31.73;8.63;;;17.70;99.90;;;;;;5172265;28;20018;-76
2022/08/28 04:20:00;;;;;;;30.60;7.80;;;17.60;99.90;;;;;;5154794;28;20490;-74
2022/08/28 04:22:31;;;;;;;28.38;8.00;;;17.90;99.90;;;;;;5171077;28;20482;-75
2022/08/28 04:25:03;;;;;;;29.92;7.53;;;18.00;99.90;;;;;;5174039;28;20101;-74
2022/08/28 04:27:34;;;;;;;35.28;8.13;;;18.30;99.90;;;;;;5155344;28;20370;-76
2022/08/28 04:30:06;;;;;;;27.90;7.65;;;18.40;99.90;;;;;;5150163;28;20022;-74
2022/08/28 04:32:38;;;;;;;29.85;7.60;;;18.60;99.90;;;;;;5152219;28;20045;-74
2022/08/28 04:35:11;;;;;;;29.35;7.15;;;18.50;99.90;;;;;;5174076;28;20037;-75
2022/08/28 04:37:45;;;;;;;27.52;7.68;;;18.60;99.90;;;;;;5153436;28;20026;-74
2022/08/28 04:40:15;;;;;;;38.15;7.43;;;18.70;99.90;;;;;;5660418;23;20135;-75
2022/08/28 04:42:46;;;;;;;30.83;7.60;;;18.60;99.90;;;;;;5157055;28;20038;-74
2022/08/28 04:45:17;;;;;;;32.58;7.00;;;18.60;99.90;;;;;;5165760;28;20109;-75
2022/08/28 04:47:48;;;;;;;30.60;7.55;;;18.80;99.90;;;;;;5166115;28;20142;-74
2022/08/28 04:50:19;;;;;;;25.95;7.05;;;18.90;99.90;;;;;;5148403;28;20457;-75
2022/08/28 04:52:51;;;;;;;28.88;7.28;;;19.00;99.90;;;;;;5165561;28;20536;-76
2022/08/28 04:55:22;;;;;;;36.35;6.93;;;19.30;99.90;;;;;;5166771;28;20023;-75
2022/08/28 04:57:52;;;;;;;26.27;7.07;;;19.40;99.90;;;;;;5147964;28;20031;-76
2022/08/28 05:00:23;;;;;;;37.15;7.05;;;19.40;99.90;;;;;;5146919;28;20486;-75
2022/08/28 05:02:54;;;;;;;29.60;7.65;;;19.40;99.90;;;;;;5148554;28;20030;-75
2022/08/28 05:05:25;;;;;;;31.52;7.32;;;19.20;99.90;;;;;;5146670;28;20017;-76
2022/08/28 05:07:56;;;;;;;33.80;7.78;;;19.10;99.90;;;;;;5148433;28;20054;-75
2022/08/28 05:10:27;;;;;;;35.45;7.28;;;19.30;99.90;;;;;;5164407;28;20022;-75
2022/08/28 05:12:58;;;;;;;30.42;7.50;;;19.70;99.90;;;;;;5165091;28;20480;-74
2022/08/28 05:15:29;;;;;;;39.40;7.95;;;19.90;99.90;;;;;;5165589;28;20093;-76
2022/08/28 05:18:00;;;;;;;40.00;8.45;;;19.80;99.90;;;;;;5165277;28;20463;-75
2022/08/28 05:20:35;;;;;;;35.70;6.85;;;19.90;99.90;;;;;;5164831;28;20084;-76
2022/08/28 05:23:08;;;;;;;31.42;6.97;;;19.80;99.90;;;;;;5147887;28;20128;-76
2022/08/28 05:25:46;;;;;;;36.05;7.45;;;20.10;99.90;;;;;;5165030;28;20029;-75
2022/08/28 05:28:17;;;;;;;32.53;6.60;;;20.40;99.90;;;;;;5147956;28;20134;-76
2022/08/28 05:30:48;;;;;;;37.35;7.55;;;20.50;99.90;;;;;;5147994;28;20494;-74
2022/08/28 05:33:19;;;;;;;34.15;7.55;;;20.20;99.90;;;;;;5165649;28;20057;-75
2022/08/28 05:35:49;;;;;;;38.35;9.20;;;20.40;99.90;;;;;;5165401;28;20022;-75
2022/08/28 05:38:21;;;;;;;40.25;9.10;;;20.60;99.90;;;;;;5164922;28;20031;-75
2022/08/28 05:40:52;;;;;;;35.13;7.10;;;20.70;99.90;;;;;;5164539;28;20161;-75
2022/08/28 05:43:24;;;;;;;36.10;7.70;;;20.70;99.90;;;;;;5163634;28;20125;-76
2022/08/28 05:46:00;;;;;;;35.90;6.78;;;21.00;99.90;;;;;;5165790;28;20046;-76
2022/08/28 05:48:31;;;;;;;31.23;7.55;;;21.00;99.90;;;;;;5165859;28;20054;-73
2022/08/28 05:51:08;;;;;;;33.22;6.82;;;21.40;99.90;;;;;;5165462;28;20018;-74
2022/08/28 05:53:41;;;;;;;37.08;7.97;;;21.60;99.90;;;;;;5148267;28;20141;-76
2022/08/28 05:56:23;;;;;;;37.15;6.95;;;21.50;99.90;;;;;;5165284;28;20054;-76
2022/08/28 05:58:55;;;;;;;45.63;7.40;;;21.60;99.90;;;;;;5148768;28;20486;-77
2022/08/28 06:01:39;;;;;;;31.15;7.25;;;21.70;99.90;;;;;;5167022;28;20049;-77
2022/08/28 06:04:13;;;;;;;138.48;15.13;;;21.80;99.90;;;;;;5166781;28;20102;-76
2022/08/28 06:06:45;;;;;;;32.90;7.32;;;22.20;99.90;;;;;;5149540;28;20026;-76
2022/08/28 06:09:19;;;;;;;39.08;7.07;;;22.40;99.90;;;;;;5166140;28;20019;-76
2022/08/28 06:11:52;;;;;;;37.55;7.55;;;22.60;99.90;;;;;;5166347;28;20034;-77
2022/08/28 06:14:23;;;;;;;43.45;8.00;;;22.80;99.90;;;;;;5163512;28;20022;-76
2022/08/28 06:16:55;;;;;;;38.53;7.03;;;23.00;99.90;;;;;;5166722;28;20062;-76
2022/08/28 06:19:29;;;;;;;44.38;7.78;;;23.10;99.90;;;;;;5166198;28;20023;-76
2022/08/28 06:22:02;;;;;;;41.40;6.85;;;23.50;99.90;;;;;;5165656;28;20034;-76
2022/08/28 06:24:33;;;;;;;37.20;7.10;;;23.50;99.90;;;;;;5166105;28;20050;-76
2022/08/28 06:27:04;;;;;;;42.75;7.55;;;23.60;99.90;;;;;;5148145;28;20026;-76
2022/08/28 06:29:35;;;;;;;37.08;6.47;;;23.90;99.90;;;;;;5165604;28;20397;-76
2022/08/28 06:32:06;;;;;;;36.65;6.88;;;24.10;99.90;;;;;;5166288;28;20049;-77
2022/08/28 06:34:37;;;;;;;37.05;7.70;;;24.20;99.90;;;;;;5166040;28;20105;-76
2022/08/28 06:37:09;;;;;;;43.55;7.65;;;24.30;99.90;;;;;;5148184;28;20033;-76
2022/08/28 06:39:39;;;;;;;38.08;7.95;;;24.30;99.90;;;;;;5148229;28;20109;-76
2022/08/28 06:42:10;;;;;;;48.70;9.23;;;24.50;99.90;;;;;;5165870;28;20268;-76
2022/08/28 06:44:41;;;;;;;42.60;9.05;;;24.60;99.90;;;;;;5165055;28;20116;-76
2022/08/28 06:47:13;;;;;;;42.53;9.43;;;24.80;99.90;;;;;;5148459;28;20042;-76
2022/08/28 06:49:44;;;;;;;42.95;9.32;;;25.00;99.90;;;;;;5164517;28;20084;-76
2022/08/28 06:52:15;;;;;;;63.13;20.05;;;25.00;99.90;;;;;;5165522;28;20110;-76
2022/08/28 06:54:46;;;;;;;46.90;9.50;;;25.50;99.90;;;;;;5164910;28;20078;-76
2022/08/28 06:57:17;;;;;;;40.72;9.05;;;25.60;99.90;;;;;;5164755;28;20031;-75
2022/08/28 06:59:48;;;;;;;42.08;8.32;;;25.80;99.90;;;;;;5147104;28;20029;-77
2022/08/28 07:02:18;;;;;;;45.72;8.18;;;25.90;99.90;;;;;;5165238;28;20053;-76
2022/08/28 07:04:53;;;;;;;41.22;8.57;;;26.00;99.90;;;;;;5147202;28;20026;-77
2022/08/28 07:07:24;;;;;;;47.50;8.65;;;26.20;99.90;;;;;;5160663;28;20031;-77
2022/08/28 07:09:55;;;;;;;52.42;9.05;;;26.30;99.90;;;;;;5147482;28;20359;-77
2022/08/28 07:12:25;;;;;;;47.47;8.43;;;26.30;99.90;;;;;;5149638;28;20054;-77
2022/08/28 07:14:56;;;;;;;44.40;9.15;;;26.30;99.90;;;;;;5164992;28;20081;-77
2022/08/28 07:17:27;;;;;;;45.50;7.93;;;26.50;99.90;;;;;;5147507;28;20496;-77
2022/08/28 07:19:58;;;;;;;43.70;10.75;;;26.40;99.90;;;;;;5165782;28;20033;-76
2022/08/28 07:22:30;;;;;;;47.05;8.20;;;26.60;99.90;;;;;;5164396;28;20042;-77
2022/08/28 07:25:00;;;;;;;59.15;7.85;;;26.90;99.90;;;;;;5164503;28;20019;-77
2022/08/28 07:27:31;;;;;;;54.22;8.10;;;27.00;99.90;;;;;;5152568;28;20356;-76
2022/08/28 07:30:07;;;;;;;60.05;7.80;;;27.10;99.90;;;;;;5165493;28;20025;-76
2022/08/28 07:32:38;;;;;;;43.75;7.47;;;27.20;99.90;;;;;;5165178;28;20113;-77
2022/08/28 07:35:09;;;;;;;40.72;8.02;;;27.30;99.90;;;;;;5147069;28;20532;-77
2022/08/28 07:37:43;;;;;;;53.28;10.02;;;27.50;99.90;;;;;;5147442;28;20129;-76
2022/08/28 07:40:14;;;;;;;61.72;9.90;;;27.60;99.90;;;;;;5164025;28;20092;-77
2022/08/28 07:45:34;;;;;;;53.25;9.38;;;27.60;99.90;;;;;;5161723;28;20089;-77
2022/08/28 07:48:07;;;;;;;55.72;11.93;;;27.90;99.90;;;;;;5165570;28;20031;-77
2022/08/28 07:50:38;;;;;;;62.60;11.40;;;27.90;99.90;;;;;;5147286;28;20030;-76
2022/08/28 07:53:09;;;;;;;47.85;9.65;;;28.00;99.90;;;;;;5146667;28;20556;-77
2022/08/28 07:55:39;;;;;;;44.33;8.85;;;28.20;99.90;;;;;;5149217;28;20038;-76
2022/08/28 07:58:12;;;;;;;49.47;9.13;;;28.20;99.90;;;;;;5146646;28;20046;-76
2022/08/28 08:00:43;;;;;;;52.28;8.88;;;28.00;99.90;;;;;;5147687;28;20038;-77
2022/08/28 08:03:14;;;;;;;44.40;8.05;;;28.30;99.90;;;;;;5164216;28;20038;-77
2022/08/28 08:05:56;;;;;;;40.97;7.20;;;28.20;99.90;;;;;;5163947;28;20046;-76
2022/08/28 08:08:32;;;;;;;42.42;7.53;;;28.30;99.90;;;;;;5143518;28;20019;-77
2022/08/28 08:11:09;;;;;;;45.17;8.38;;;28.60;99.90;;;;;;5147150;28;20133;-77
2022/08/28 08:13:40;;;;;;;39.30;7.70;;;28.50;99.90;;;;;;5146788;28;20035;-77
2022/08/28 08:16:16;;;;;;;42.45;7.25;;;28.50;99.90;;;;;;5146765;28;20107;-76
2022/08/28 08:18:47;;;;;;;48.25;7.18;;;28.60;99.90;;;;;;5167365;28;20077;-76
2022/08/28 08:21:20;;;;;;;39.97;7.18;;;28.80;99.90;;;;;;5168180;28;20500;-76
2022/08/28 08:23:51;;;;;;;43.28;7.60;;;28.60;99.90;;;;;;5167567;28;20486;-77
2022/08/28 08:26:26;;;;;;;42.67;7.82;;;28.90;99.90;;;;;;5168718;28;20025;-77
2022/08/28 08:28:58;;;;;;;50.35;8.15;;;29.10;99.90;;;;;;5147347;28;20023;-77
2022/08/28 08:31:31;;;;;;;39.55;6.32;;;29.10;99.90;;;;;;5168504;28;20478;-77
2022/08/28 08:34:04;;;;;;;43.03;7.28;;;29.10;99.90;;;;;;5167977;28;20027;-76
2022/08/28 08:36:37;;;;;;;41.63;6.63;;;29.30;99.90;;;;;;5168072;28;20093;-76
2022/08/28 08:39:07;;;;;;;43.47;6.90;;;29.10;99.90;;;;;;5154483;28;20033;-76
2022/08/28 08:41:46;;;;;;;34.90;6.40;;;29.20;99.90;;;;;;5168187;28;20414;-76
2022/08/28 08:44:29;;;;;;;45.20;6.80;;;29.20;99.90;;;;;;5150738;28;20026;-76
2022/08/28 08:47:28;;;;;;;38.38;7.00;;;29.60;99.90;;;;;;5165416;28;20026;-76
2022/08/28 08:50:23;;;;;;;43.90;6.63;;;29.70;99.90;;;;;;5168538;28;20443;-76
2022/08/28 08:53:15;;;;;;;49.38;6.45;;;29.60;99.90;;;;;;5167172;28;20022;-76
2022/08/28 08:55:52;;;;;;;35.88;6.93;;;29.70;99.90;;;;;;5149574;28;20363;-76
2022/08/28 08:58:53;;;;;;;42.45;7.78;;;29.50;99.90;;;;;;5163805;28;20426;-76
2022/08/28 09:01:33;;;;;;;45.25;6.38;;;29.60;99.90;;;;;;5149980;28;20042;-76
2022/08/28 09:04:35;;;;;;;30.15;5.63;;;29.90;99.90;;;;;;5147815;28;20034;-76
2022/08/28 09:07:38;;;;;;;36.53;6.40;;;30.00;99.90;;;;;;5165395;28;20069;-76
2022/08/28 09:10:12;;;;;;;38.28;6.03;;;30.20;99.90;;;;;;5161985;28;20064;-76
2022/08/28 09:12:43;;;;;;;35.13;5.60;;;29.90;99.90;;;;;;5150364;28;20029;-76
2022/08/28 09:15:22;;;;;;;43.42;6.22;;;30.00;99.90;;;;;;5150354;28;20030;-77
2022/08/28 09:17:58;;;;;;;41.08;5.72;;;30.30;99.90;;;;;;5167377;28;20018;-76
2022/08/28 09:20:29;;;;;;;38.80;6.45;;;30.60;99.90;;;;;;5166443;28;20026;-76
2022/08/28 09:23:00;;;;;;;41.72;6.00;;;30.60;99.90;;;;;;5166168;28;20045;-76
2022/08/28 09:25:43;;;;;;;40.38;6.65;;;30.50;99.90;;;;;;5166851;28;20033;-76
2022/08/28 09:28:22;;;;;;;42.50;6.97;;;30.60;99.90;;;;;;5165757;28;20037;-76
2022/08/28 09:31:01;;;;;;;44.10;5.93;;;30.70;99.90;;;;;;5152136;28;20038;-76
2022/08/28 09:33:35;;;;;;;47.03;10.65;;;30.70;99.90;;;;;;5167619;28;20102;-76
2022/08/28 09:36:29;;;;;;;40.83;8.35;;;30.70;99.90;;;;;;5148580;28;20478;-74
2022/08/28 09:39:25;;;;;;;34.70;5.60;;;31.10;99.90;;;;;;5137030;28;20443;-76
2022/08/28 09:45:17;;;;;;;40.67;5.85;;;30.90;99.90;;;;;;5166696;28;20092;-76
2022/08/28 09:47:57;;;;;;;37.78;6.60;;;30.90;99.90;;;;;;5165909;28;20046;-74
2022/08/28 09:50:39;;;;;;;34.17;5.70;;;31.10;99.90;;;;;;5162829;28;20060;-75
2022/08/28 09:53:10;;;;;;;42.15;6.00;;;31.10;99.90;;;;;;5148369;28;20089;-75
2022/08/28 09:56:19;;;;;;;30.45;5.32;;;31.20;99.90;;;;;;5167243;28;20033;-75
2022/08/28 09:58:50;;;;;;;39.38;5.18;;;31.30;99.90;;;;;;5162874;28;20043;-76
2022/08/28 10:01:47;;;;;;;43.10;6.82;;;31.20;99.90;;;;;;5148618;28;20530;-76
2022/08/28 10:04:28;;;;;;;46.17;7.30;;;31.50;99.90;;;;;;5166134;28;20033;-74
2022/08/28 10:07:02;;;;;;;36.88;5.60;;;31.20;99.90;;;;;;5166467;28;20026;-75
2022/08/28 10:09:41;;;;;;;32.05;5.35;;;31.60;99.90;;;;;;5165843;28;20030;-76
2022/08/28 10:12:35;;;;;;;39.10;6.15;;;31.50;99.90;;;;;;5165652;28;20065;-75
2022/08/28 10:15:32;;;;;;;38.08;5.30;;;30.70;99.90;;;;;;5163988;28;20085;-75
2022/08/28 10:18:17;;;;;;;34.08;5.60;;;31.30;99.90;;;;;;5162712;28;20069;-75
2022/08/28 10:21:02;;;;;;;46.65;5.85;;;31.60;99.90;;;;;;5165338;28;20099;-75
2022/08/28 10:23:51;;;;;;;48.67;5.82;;;31.50;99.90;;;;;;5165613;28;20382;-76
2022/08/28 10:26:22;;;;;;;;;;;31.70;99.90;;;;;;5166696;28;20077;-76
2022/08/28 10:29:18;;;;;;;38.72;6.65;;;31.60;99.90;;;;;;5147744;28;20302;-75
2022/08/28 10:31:58;;;;;;;35.65;4.88;;;31.70;99.90;;;;;;5164676;28;20076;-76
2022/08/28 10:34:50;;;;;;;46.70;5.85;;;31.60;99.90;;;;;;5144871;28;20076;-75
2022/08/28 10:37:40;;;;;;;33.88;6.00;;;31.40;99.90;;;;;;5162394;28;20026;-75
2022/08/28 10:40:27;;;;;;;45.97;6.13;;;31.80;99.90;;;;;;5164756;28;20688;-75
2022/08/28 10:43:28;;;;;;;30.95;5.65;;;31.60;99.90;;;;;;5161766;28;20038;-76
2022/08/28 10:46:04;;;;;;;36.47;5.70;;;31.90;99.90;;;;;;5162370;28;20053;-76
2022/08/28 10:49:07;;;;;;;33.85;5.53;;;32.00;99.90;;;;;;5165184;28;20031;-75
2022/08/28 10:52:01;;;;;;;37.60;5.32;;;32.00;99.90;;;;;;5164792;28;20046;-75
2022/08/28 10:55:12;;;;;;;48.72;5.88;;;32.00;99.90;;;;;;5147963;28;20037;-75
2022/08/28 10:57:49;;;;;;;34.70;5.05;;;32.00;99.90;;;;;;5151788;28;20498;-76
2022/08/28 11:00:22;;;;;;;37.95;6.53;;;32.30;99.90;;;;;;5164667;28;20026;-77
2022/08/28 11:03:09;;;;;;;38.83;4.85;;;32.30;99.90;;;;;;5164924;28;20572;-76
2022/08/28 11:05:49;;;;;;;43.00;6.05;;;31.80;99.90;;;;;;5165752;28;20687;-75
2022/08/28 11:08:34;;;;;;;33.22;5.15;;;31.60;99.90;;;;;;5165041;28;20026;-75
2022/08/28 11:11:11;;;;;;;33.70;4.57;;;32.10;99.90;;;;;;5163971;28;20042;-75
2022/08/28 11:13:45;;;;;;;31.50;5.03;;;32.10;99.90;;;;;;5147899;28;20498;-75
2022/08/28 11:16:42;;;;;;;34.25;5.20;;;32.10;99.90;;;;;;5147444;28;20060;-76
2022/08/28 11:19:25;;;;;;;42.47;5.78;;;32.00;99.90;;;;;;5155602;28;20047;-75
2022/08/28 11:22:01;;;;;;;31.23;4.82;;;32.00;99.90;;;;;;5161503;28;20042;-76
2022/08/28 11:24:38;;;;;;;39.58;4.85;;;32.20;99.90;;;;;;5147696;28;20030;-76
2022/08/28 11:27:22;;;;;;;42.05;5.40;;;32.40;99.90;;;;;;5163493;28;20109;-75
2022/08/28 11:29:57;;;;;;;40.22;4.90;;;32.80;99.90;;;;;;5147220;28;20022;-76
2022/08/28 11:32:33;;;;;;;27.77;4.22;;;32.60;99.90;;;;;;5165429;28;20113;-76
2022/08/28 11:35:39;;;;;;;28.23;4.55;;;32.80;99.90;;;;;;5164753;28;20485;-75
2022/08/28 11:38:31;;;;;;;34.15;5.25;;;32.50;99.90;;;;;;5163642;28;20045;-75
2022/08/28 11:41:23;;;;;;;30.17;4.25;;;32.50;99.90;;;;;;5631681;23;20055;-76
2022/08/28 11:44:11;;;;;;;29.38;5.18;;;32.30;99.90;;;;;;5145154;28;20039;-76
2022/08/28 11:46:51;;;;;;;32.35;5.07;;;31.60;99.90;;;;;;5143754;28;20031;-76
2022/08/28 11:49:33;;;;;;;35.55;5.97;;;31.60;99.90;;;;;;5145798;28;20505;-76
2022/08/28 11:52:07;;;;;;;38.13;5.10;;;31.80;99.90;;;;;;5144282;28;20114;-75
2022/08/28 11:55:18;;;;;;;44.00;5.22;;;32.30;99.90;;;;;;5144474;28;20035;-76
2022/08/28 11:58:04;;;;;;;43.15;5.63;;;32.40;99.90;;;;;;5138055;28;20755;-77
2022/08/28 12:01:02;;;;;;;37.15;5.22;;;32.40;99.90;;;;;;5141689;28;20031;-77
2022/08/28 12:03:55;;;;;;;31.05;4.65;;;32.70;99.90;;;;;;5143567;28;20042;-76
2022/08/28 12:06:48;;;;;;;27.10;4.65;;;32.60;99.90;;;;;;5143484;28;20594;-77
2022/08/28 12:09:25;;;;;;;34.58;6.07;;;31.60;99.90;;;;;;5144574;28;20022;-77
2022/08/28 12:11:59;;;;;;;28.48;8.00;;;32.00;99.90;;;;;;5141402;28;20031;-77
2022/08/28 12:14:39;;;;;;;30.63;5.10;;;32.40;99.90;;;;;;5144808;28;20383;-77
2022/08/28 12:17:27;;;;;;;30.98;5.22;;;32.70;99.90;;;;;;5143564;28;20058;-77
2022/08/28 12:20:21;;;;;;;30.88;5.55;;;32.60;99.90;;;;;;5141635;28;20110;-76
2022/08/28 12:22:55;;;;;;;38.47;5.80;;;32.60;99.90;;;;;;5143401;28;20038;-77
2022/08/28 12:25:34;;;;;;;30.60;5.15;;;32.40;99.90;;;;;;5141449;28;20387;-77
2022/08/28 12:28:16;;;;;;;31.42;4.93;;;32.70;99.90;;;;;;5144583;28;20026;-77
2022/08/28 12:32:09;;;;;;;38.97;5.05;;;32.80;99.90;;;;;;5143139;28;20035;-77
2022/08/28 12:34:18;;;;;;;33.75;5.30;;;32.50;99.90;;;;;;5144420;28;20066;-76
2022/08/28 12:36:58;;;;;;;100.03;6.88;;;32.50;99.90;;;;;;5144537;28;20069;-77
2022/08/28 12:39:31;;;;;;;32.40;5.00;;;32.60;99.90;;;;;;5143167;28;20036;-77
2022/08/28 12:42:02;;;;;;;53.72;5.53;;;32.60;99.90;;;;;;5158872;28;20105;-77
2022/08/28 12:44:33;;;;;;;31.73;5.45;;;32.60;99.90;;;;;;5143209;28;20591;-77
2022/08/28 12:47:04;;;;;;;25.80;4.93;;;32.50;99.90;;;;;;5144385;28;20025;-76
2022/08/28 12:49:37;;;;;;;30.75;5.35;;;32.60;99.90;;;;;;5144284;28;20494;-77
2022/08/28 12:52:21;;;;;;;31.42;4.93;;;32.40;99.90;;;;;;5144276;28;20019;-76
2022/08/28 12:54:57;;;;;;;28.60;4.55;;;32.50;99.90;;;;;;5143003;28;20376;-76
2022/08/28 12:57:28;;;;;;;36.28;5.25;;;32.60;99.90;;;;;;5140110;28;20078;-76
2022/08/28 13:00:07;;;;;;;35.70;5.18;;;32.60;99.90;;;;;;5142913;28;20402;-78
2022/08/28 13:02:41;;;;;;;39.65;4.95;;;32.60;99.90;;;;;;5144219;28;20035;-77
2022/08/28 13:05:27;;;;;;;37.15;4.78;;;32.00;99.90;;;;;;5161233;28;20029;-78
2022/08/28 13:08:03;;;;;;;34.35;5.65;;;32.40;99.90;;;;;;5145371;28;20019;-78
2022/08/28 13:10:48;;;;;;;35.35;5.38;;;32.00;99.90;;;;;;5147497;28;20050;-78
2022/08/28 13:13:38;;;;;;;31.65;5.80;;;32.00;99.90;;;;;;5151250;28;20122;-77
2022/08/28 13:16:12;;;;;;;33.65;4.93;;;32.30;99.90;;;;;;5148176;28;21611;-77
2022/08/28 13:18:47;;;;;;;32.78;5.38;;;32.20;99.90;;;;;;5147506;28;20046;-77
2022/08/28 13:21:18;;;;;;;34.33;5.30;;;32.20;99.90;;;;;;5146170;28;20035;-76
2022/08/28 13:23:53;;;;;;;39.60;5.82;;;31.60;99.90;;;;;;5146357;28;20038;-76
2022/08/28 13:26:26;;;;;;;39.50;5.53;;;31.70;99.90;;;;;;5146018;28;20042;-76
2022/08/28 13:28:58;;;;;;;33.10;5.38;;;32.10;99.90;;;;;;5146171;28;20041;-76
2022/08/28 13:31:32;;;;;;;38.75;5.93;;;31.80;99.90;;;;;;5146553;28;20494;-76